Time;durP1;ratioP1;P1;durP2;ratioP2;P2;SDS_P1;SDS_P2;PMS_P1;PMS_P2;Temp;Humidity;BMP_temperature;BMP_pressure;BME280_temperature;BME280_humidity;BME280_pressure;Samples;Min_cycle;Max_cycle;Signal;HPM_P1;HPM_P2
2020/12/04 00:02:07;;;;;;;2.22;1.30;;;5.70;99.90;;;;;;5092473;28;20035;-64
2020/12/04 00:04:34;;;;;;;2.42;1.58;;;5.70;99.90;;;;;;5107700;28;20031;-60
2020/12/04 00:07:00;;;;;;;1.73;1.30;;;5.80;99.90;;;;;;5112615;28;20561;-63
2020/12/04 00:09:26;;;;;;;2.70;1.83;;;5.70;99.90;;;;;;5112663;28;20060;-60
2020/12/04 00:11:52;;;;;;;2.28;1.60;;;5.70;99.90;;;;;;5104131;27;20560;-62
2020/12/04 00:14:17;;;;;;;3.05;1.70;;;5.70;99.90;;;;;;5106460;28;20134;-61
2020/12/04 00:16:43;;;;;;;3.50;2.00;;;5.70;99.90;;;;;;5112884;28;20164;-59
2020/12/04 00:19:09;;;;;;;3.90;2.30;;;5.60;99.90;;;;;;5111447;28;20027;-60
2020/12/04 00:21:34;;;;;;;3.58;2.40;;;5.70;99.90;;;;;;5097667;27;20523;-58
2020/12/04 00:24:00;;;;;;;3.55;1.92;;;5.60;99.90;;;;;;5103912;28;20027;-60
2020/12/04 00:26:26;;;;;;;3.47;2.15;;;5.70;99.90;;;;;;5108832;28;20118;-59
2020/12/04 00:28:51;;;;;;;3.83;2.17;;;5.70;99.90;;;;;;5106264;28;20485;-60
2020/12/04 00:31:17;;;;;;;3.13;2.13;;;5.70;99.90;;;;;;5112837;28;20031;-62
2020/12/04 00:33:43;;;;;;;3.85;2.20;;;5.60;99.90;;;;;;5112303;28;20134;-57
2020/12/04 00:36:09;;;;;;;5.13;1.85;;;5.60;99.90;;;;;;5112277;28;20844;-60
2020/12/04 00:38:35;;;;;;;2.85;1.80;;;5.60;99.90;;;;;;5111859;28;20122;-58
2020/12/04 00:41:02;;;;;;;3.60;2.28;;;5.60;99.90;;;;;;5111401;28;20751;-61
2020/12/04 00:43:29;;;;;;;8.20;2.42;;;5.60;99.90;;;;;;5099305;28;20035;-62
2020/12/04 00:45:55;;;;;;;2.78;1.88;;;5.60;99.90;;;;;;5104240;28;20028;-61
2020/12/04 00:48:20;;;;;;;6.00;3.08;;;5.60;99.90;;;;;;5108562;28;20030;-59
2020/12/04 00:50:46;;;;;;;5.18;2.60;;;5.60;99.90;;;;;;5112055;28;20054;-58
2020/12/04 00:53:12;;;;;;;9.23;3.55;;;5.50;99.90;;;;;;5111802;28;20397;-62
2020/12/04 00:55:37;;;;;;;7.45;3.85;;;5.50;99.90;;;;;;5110924;28;20653;-62
2020/12/04 00:58:04;;;;;;;5.60;2.85;;;5.40;99.90;;;;;;5109426;28;20093;-60
2020/12/04 01:00:29;;;;;;;6.57;3.25;;;5.50;99.90;;;;;;5111502;28;20047;-59
2020/12/04 01:02:55;;;;;;;6.57;3.85;;;5.40;99.90;;;;;;5111524;28;20377;-58
2020/12/04 01:05:21;;;;;;;9.15;4.35;;;5.40;99.90;;;;;;5111783;28;20351;-54
2020/12/04 01:07:46;;;;;;;6.10;3.90;;;5.40;99.90;;;;;;5112161;28;20039;-58
2020/12/04 01:10:12;;;;;;;5.68;4.03;;;5.30;99.90;;;;;;5111813;28;20043;-52
2020/12/04 01:12:42;;;;;;;5.53;3.30;;;5.30;99.90;;;;;;5101995;27;20031;-57
2020/12/04 01:15:10;;;;;;;5.70;3.67;;;5.30;99.90;;;;;;5111335;28;20454;-56
2020/12/04 01:17:36;;;;;;;11.80;3.42;;;5.20;99.90;;;;;;5111071;28;20460;-57
2020/12/04 01:20:05;;;;;;;7.70;3.85;;;5.20;99.90;;;;;;5111499;28;20044;-56
2020/12/04 01:22:31;;;;;;;8.90;3.85;;;5.20;99.90;;;;;;5111234;28;20024;-51
2020/12/04 01:24:57;;;;;;;6.90;4.18;;;5.10;99.90;;;;;;5110715;28;20038;-51
2020/12/04 01:27:23;;;;;;;7.32;3.85;;;5.10;99.90;;;;;;5107162;28;20058;-55
2020/12/04 01:29:49;;;;;;;4.15;3.05;;;5.10;99.90;;;;;;5111161;28;20810;-52
2020/12/04 01:32:14;;;;;;;15.25;4.15;;;5.10;99.90;;;;;;5111378;28;20024;-48
2020/12/04 01:34:40;;;;;;;14.48;3.95;;;5.00;99.90;;;;;;5111364;28;20062;-46
2020/12/04 01:37:06;;;;;;;4.50;2.83;;;5.00;99.90;;;;;;5110955;28;20492;-48
2020/12/04 01:39:32;;;;;;;9.77;3.88;;;5.00;99.90;;;;;;5111107;28;20392;-49
2020/12/04 01:41:57;;;;;;;5.22;3.58;;;4.90;99.90;;;;;;5109118;27;20029;-46
2020/12/04 01:44:23;;;;;;;6.20;3.65;;;5.00;99.90;;;;;;5105036;28;20385;-46
2020/12/04 01:46:50;;;;;;;5.57;3.80;;;5.00;99.90;;;;;;5110858;28;20109;-55
2020/12/04 01:49:16;;;;;;;6.85;3.92;;;4.90;99.90;;;;;;5111010;28;20027;-54
2020/12/04 01:51:42;;;;;;;8.57;4.63;;;4.80;99.90;;;;;;5109594;28;20038;-53
2020/12/04 01:54:08;;;;;;;6.53;4.15;;;4.80;99.90;;;;;;5110524;28;20354;-54
2020/12/04 01:56:38;;;;;;;7.75;4.75;;;4.70;99.90;;;;;;5110807;28;20476;-55
2020/12/04 01:59:07;;;;;;;9.10;5.75;;;4.70;99.90;;;;;;5108083;28;20032;-55
2020/12/04 02:01:35;;;;;;;17.10;9.15;;;4.60;99.90;;;;;;5110182;28;20739;-55
2020/12/04 02:04:01;;;;;;;13.23;7.43;;;4.60;99.90;;;;;;5110307;28;20055;-57
2020/12/04 02:07:03;;;;;;;7.85;4.13;;;4.60;99.90;;;;;;5110549;28;20066;-53
2020/12/04 02:09:35;;;;;;;15.73;7.65;;;4.50;99.90;;;;;;5110442;28;20038;-52
2020/12/04 02:12:04;;;;;;;14.02;6.93;;;4.40;99.90;;;;;;5110609;28;20097;-49
2020/12/04 02:14:30;;;;;;;5.65;3.90;;;4.40;99.90;;;;;;5105581;27;20032;-50
2020/12/04 02:17:04;;;;;;;11.57;6.18;;;4.30;99.90;;;;;;5110193;28;20039;-49
2020/12/04 02:19:37;;;;;;;15.00;7.50;;;4.30;99.90;;;;;;5109862;28;20031;-50
2020/12/04 02:22:04;;;;;;;14.90;9.15;;;4.30;99.90;;;;;;5110573;28;20118;-49
2020/12/04 02:24:30;;;;;;;18.23;10.15;;;4.30;99.90;;;;;;5110064;28;20042;-50
2020/12/04 02:26:57;;;;;;;13.77;7.45;;;4.30;99.90;;;;;;5110053;28;20111;-52
2020/12/04 02:29:24;;;;;;;16.30;9.52;;;4.30;99.90;;;;;;5092100;27;20035;-50
2020/12/04 02:31:50;;;;;;;12.63;8.00;;;4.30;99.90;;;;;;5088250;28;20039;-49
2020/12/04 02:34:15;;;;;;;15.05;8.30;;;4.20;99.90;;;;;;5090478;28;20355;-48
2020/12/04 02:36:41;;;;;;;19.30;7.93;;;4.10;99.90;;;;;;5108742;28;20134;-49
2020/12/04 02:39:07;;;;;;;6.88;4.00;;;4.10;99.90;;;;;;5109922;28;20116;-50
2020/12/04 02:41:33;;;;;;;17.30;8.82;;;4.10;99.90;;;;;;5110261;28;20062;-51
2020/12/04 02:44:00;;;;;;;18.85;9.65;;;4.10;99.90;;;;;;5110407;28;20094;-48
2020/12/04 02:46:26;;;;;;;11.45;6.72;;;4.00;99.90;;;;;;5109772;28;20032;-47
2020/12/04 02:48:51;;;;;;;11.55;6.90;;;4.00;99.90;;;;;;5110820;28;20039;-49
2020/12/04 02:51:17;;;;;;;12.20;7.82;;;3.90;99.90;;;;;;5110877;28;20066;-51
2020/12/04 02:53:42;;;;;;;8.82;5.45;;;3.80;99.90;;;;;;5111180;28;20141;-49
2020/12/04 02:56:08;;;;;;;12.68;6.05;;;3.70;99.90;;;;;;5110749;28;20032;-51
2020/12/04 02:58:34;;;;;;;12.93;7.10;;;3.60;99.90;;;;;;5110906;27;20035;-49
2020/12/04 03:00:59;;;;;;;10.30;5.88;;;3.60;99.90;;;;;;5110711;28;20046;-49
2020/12/04 03:03:25;;;;;;;16.38;8.70;;;3.60;99.90;;;;;;5110941;28;20358;-49
2020/12/04 03:05:51;;;;;;;15.32;8.32;;;3.70;99.90;;;;;;5110699;28;20032;-49
2020/12/04 03:08:16;;;;;;;14.73;7.72;;;3.70;99.90;;;;;;5111203;28;20370;-48
2020/12/04 03:10:42;;;;;;;8.13;5.18;;;3.70;99.90;;;;;;5110889;28;20035;-49
2020/12/04 03:13:07;;;;;;;16.08;7.47;;;3.70;99.90;;;;;;5110791;28;20035;-48
2020/12/04 03:15:33;;;;;;;14.52;7.95;;;3.70;99.90;;;;;;5110699;28;20031;-52
2020/12/04 03:17:59;;;;;;;9.40;5.32;;;3.60;99.90;;;;;;5110591;28;20192;-52
2020/12/04 03:20:24;;;;;;;10.95;7.03;;;3.60;99.90;;;;;;5113755;28;20031;-54
2020/12/04 03:22:50;;;;;;;10.68;6.75;;;3.70;99.90;;;;;;5115037;28;20355;-50
2020/12/04 03:25:16;;;;;;;9.93;5.88;;;3.70;99.90;;;;;;5115007;28;20366;-50
2020/12/04 03:27:41;;;;;;;9.52;5.43;;;3.60;99.90;;;;;;5115011;28;20047;-53
2020/12/04 03:30:07;;;;;;;9.00;5.50;;;3.60;99.90;;;;;;5114586;28;20692;-48
2020/12/04 03:32:32;;;;;;;9.48;5.00;;;3.60;99.90;;;;;;5115062;28;20058;-52
2020/12/04 03:34:59;;;;;;;9.50;6.25;;;3.50;99.90;;;;;;5114685;28;20181;-50
2020/12/04 03:37:28;;;;;;;13.27;6.10;;;3.60;99.90;;;;;;5114771;28;20052;-49
2020/12/04 03:39:54;;;;;;;13.73;6.65;;;3.60;99.90;;;;;;5114606;28;20118;-51
2020/12/04 03:42:19;;;;;;;14.00;6.15;;;3.70;99.90;;;;;;5114286;28;20149;-48
2020/12/04 03:44:45;;;;;;;13.40;6.90;;;3.70;99.90;;;;;;5113773;28;20043;-47
2020/12/04 03:47:11;;;;;;;11.13;6.70;;;3.80;99.90;;;;;;5114459;28;20079;-49
2020/12/04 03:49:36;;;;;;;13.57;7.85;;;3.90;99.90;;;;;;5114432;28;20062;-49
2020/12/04 03:52:02;;;;;;;14.55;7.32;;;4.00;99.90;;;;;;5113959;28;20027;-50
2020/12/04 03:54:28;;;;;;;10.75;6.20;;;4.00;99.90;;;;;;5111516;28;20027;-52
2020/12/04 03:56:53;;;;;;;24.02;9.43;;;4.10;99.90;;;;;;5111719;28;20035;-54
2020/12/04 03:59:19;;;;;;;15.10;8.85;;;4.20;99.90;;;;;;5113993;28;20085;-54
2020/12/04 04:01:44;;;;;;;20.30;10.48;;;4.20;99.90;;;;;;5114146;28;20067;-53
2020/12/04 04:04:10;;;;;;;17.67;10.70;;;4.30;99.90;;;;;;5114180;28;20035;-52
2020/12/04 04:06:36;;;;;;;19.65;10.68;;;4.40;99.90;;;;;;5114336;28;20028;-52
2020/12/04 04:09:01;;;;;;;19.88;12.43;;;4.40;99.90;;;;;;5114132;28;20046;-49
2020/12/04 04:11:27;;;;;;;17.35;9.63;;;4.40;99.90;;;;;;5114102;28;20503;-50
2020/12/04 04:13:53;;;;;;;22.50;13.32;;;4.40;99.90;;;;;;5114361;28;20031;-50
2020/12/04 04:16:18;;;;;;;21.27;12.07;;;4.40;99.90;;;;;;5114194;28;20036;-51
2020/12/04 04:18:44;;;;;;;23.58;13.73;;;4.40;99.90;;;;;;5113924;28;20032;-48
2020/12/04 04:21:11;;;;;;;19.85;11.15;;;4.40;99.90;;;;;;5113688;28;20101;-48
2020/12/04 04:23:37;;;;;;;21.35;12.05;;;4.40;99.90;;;;;;5112515;28;20106;-51
2020/12/04 04:26:03;;;;;;;17.33;10.30;;;4.40;99.90;;;;;;5113838;28;20114;-51
2020/12/04 04:28:29;;;;;;;19.90;11.88;;;4.40;99.90;;;;;;5113889;28;20036;-52
2020/12/04 04:30:55;;;;;;;19.88;11.10;;;4.50;99.90;;;;;;5113884;28;20100;-52
2020/12/04 04:33:21;;;;;;;17.33;10.02;;;4.50;99.90;;;;;;5113947;28;20466;-53
2020/12/04 04:35:46;;;;;;;17.20;11.05;;;4.50;99.90;;;;;;5113531;28;20043;-55
2020/12/04 04:38:12;;;;;;;20.35;11.52;;;4.40;99.90;;;;;;5113109;28;20482;-56
2020/12/04 04:40:38;;;;;;;19.08;11.52;;;4.40;99.90;;;;;;5113042;28;20047;-59
2020/12/04 04:43:15;;;;;;;20.08;12.70;;;4.40;99.90;;;;;;5111801;28;20442;-56
2020/12/04 04:45:46;;;;;;;22.98;13.30;;;4.40;99.90;;;;;;5113353;28;20028;-59
2020/12/04 04:48:25;;;;;;;20.95;11.68;;;4.40;99.90;;;;;;5113217;28;20028;-60
2020/12/04 04:50:56;;;;;;;25.60;14.50;;;4.30;99.90;;;;;;5113089;28;20084;-60
2020/12/04 04:53:23;;;;;;;20.45;11.80;;;4.30;99.90;;;;;;5113315;28;20488;-61
2020/12/04 04:55:49;;;;;;;20.92;12.82;;;4.30;99.90;;;;;;5113392;28;20027;-62
2020/12/04 04:58:15;;;;;;;24.80;13.98;;;4.30;99.90;;;;;;5111885;28;20112;-60
2020/12/04 05:00:41;;;;;;;21.88;13.68;;;4.20;99.90;;;;;;5113066;28;20135;-60
2020/12/04 05:03:10;;;;;;;23.73;13.27;;;4.20;99.90;;;;;;5112861;28;20035;-61
2020/12/04 05:05:47;;;;;;;20.33;12.10;;;4.30;99.90;;;;;;5112712;28;20038;-65
2020/12/04 05:08:18;;;;;;;20.60;12.35;;;4.20;99.90;;;;;;5111661;28;20024;-64
2020/12/04 05:10:44;;;;;;;19.48;12.57;;;4.20;99.90;;;;;;5112665;28;20040;-63
2020/12/04 05:13:11;;;;;;;23.50;13.48;;;4.20;99.90;;;;;;5113080;28;20110;-65
2020/12/04 05:15:37;;;;;;;22.80;13.55;;;4.20;99.90;;;;;;5111180;28;20108;-66
2020/12/04 05:18:10;;;;;;;25.40;13.98;;;4.30;99.90;;;;;;5112993;28;20067;-66
2020/12/04 05:20:37;;;;;;;;;;;4.30;99.90;;;;;;5112810;28;20176;-67
2020/12/04 05:23:03;;;;;;;23.63;13.93;;;4.30;99.90;;;;;;5112746;28;19919;-70
2020/12/04 05:25:47;;;;;;;29.30;15.80;;;4.30;99.90;;;;;;5112726;28;20035;-66
2020/12/04 05:28:14;;;;;;;;;;;4.40;99.90;;;;;;5112964;28;20161;-67
2020/12/04 05:30:42;;;;;;;27.80;15.65;;;4.30;99.90;;;;;;5112915;28;20253;-70
2020/12/04 05:33:08;;;;;;;28.58;16.02;;;4.30;99.90;;;;;;5112442;28;20028;-66
2020/12/04 05:35:34;;;;;;;29.75;15.98;;;4.30;99.90;;;;;;5112328;28;20446;-68
2020/12/04 05:38:07;;;;;;;34.70;16.35;;;4.30;99.90;;;;;;5112211;28;20054;-66
2020/12/04 05:40:36;;;;;;;36.63;18.48;;;4.30;99.90;;;;;;5112187;28;20138;-67
2020/12/04 05:43:03;;;;;;;35.08;19.50;;;4.40;99.90;;;;;;5111545;28;20032;-68
2020/12/04 05:45:29;;;;;;;34.97;19.35;;;4.30;99.90;;;;;;5111859;28;20031;-65
2020/12/04 05:47:56;;;;;;;35.15;17.02;;;4.30;99.90;;;;;;5099108;27;20024;-66
2020/12/04 05:50:22;;;;;;;38.22;19.48;;;4.30;99.90;;;;;;5090691;28;20075;-67
2020/12/04 05:52:48;;;;;;;31.90;16.90;;;4.30;99.90;;;;;;5091613;28;20063;-65
2020/12/04 05:55:15;;;;;;;29.08;15.73;;;4.20;99.90;;;;;;5099698;28;20372;-66
2020/12/04 05:57:50;;;;;;;29.88;15.55;;;4.20;99.90;;;;;;5097468;28;20062;-66
2020/12/04 06:00:16;;;;;;;28.05;15.85;;;4.20;99.90;;;;;;5108027;28;20066;-65
2020/12/04 06:02:41;;;;;;;28.17;14.32;;;4.30;99.90;;;;;;5087438;27;20424;-65
2020/12/04 06:05:09;;;;;;;24.98;14.10;;;4.30;99.90;;;;;;5090715;28;20024;-64
2020/12/04 06:07:35;;;;;;;27.33;15.02;;;4.30;99.90;;;;;;5096452;28;20392;-65
2020/12/04 06:10:02;;;;;;;27.65;13.73;;;4.20;99.90;;;;;;5110703;28;20027;-65
2020/12/04 06:12:28;;;;;;;26.02;14.90;;;4.30;99.90;;;;;;5107564;28;20035;-65
2020/12/04 06:14:54;;;;;;;30.60;15.35;;;4.20;99.90;;;;;;5097662;28;20040;-65
2020/12/04 06:17:20;;;;;;;30.88;16.80;;;4.30;99.90;;;;;;5092155;28;20816;-64
2020/12/04 06:19:45;;;;;;;24.20;12.30;;;4.30;99.90;;;;;;5089966;28;20683;-64
2020/12/04 06:22:18;;;;;;;27.67;15.95;;;4.20;99.90;;;;;;5092471;28;20036;-64
2020/12/04 06:24:56;;;;;;;29.08;15.60;;;4.20;99.90;;;;;;5109040;28;20057;-65
2020/12/04 06:27:42;;;;;;;27.15;14.73;;;4.20;99.90;;;;;;5109191;28;20422;-64
2020/12/04 06:30:10;;;;;;;25.92;15.13;;;4.30;99.90;;;;;;5109130;28;20038;-63
2020/12/04 06:33:05;;;;;;;29.50;17.02;;;4.20;99.90;;;;;;5105444;28;20027;-64
2020/12/04 06:35:42;;;;;;;26.23;14.23;;;4.30;99.90;;;;;;5081265;28;20073;-66
2020/12/04 06:38:37;;;;;;;29.15;14.98;;;4.30;99.90;;;;;;5100295;28;20462;-63
2020/12/04 06:41:25;;;;;;;20.73;13.02;;;4.30;99.90;;;;;;5110068;28;20044;-62
2020/12/04 06:44:03;;;;;;;26.27;14.90;;;4.20;99.90;;;;;;5106582;28;20045;-63
2020/12/04 06:46:32;;;;;;;24.73;14.18;;;4.20;99.90;;;;;;5100294;28;20059;-62
2020/12/04 06:49:11;;;;;;;22.13;13.57;;;4.20;99.90;;;;;;5101414;28;20699;-62
2020/12/04 06:51:38;;;;;;;21.45;12.75;;;4.30;99.90;;;;;;5096976;28;20417;-61
2020/12/04 06:54:08;;;;;;;18.85;12.70;;;4.20;99.90;;;;;;5096281;28;20127;-61
2020/12/04 06:56:34;;;;;;;20.75;12.10;;;4.20;99.90;;;;;;5095155;28;20422;-61
2020/12/04 06:59:01;;;;;;;25.58;13.70;;;4.20;99.90;;;;;;5102923;28;20038;-61
2020/12/04 07:01:27;;;;;;;21.63;12.82;;;4.20;99.90;;;;;;5097921;28;20039;-61
2020/12/04 07:03:56;;;;;;;20.15;11.43;;;4.20;99.90;;;;;;5100550;28;20023;-61
2020/12/04 07:06:24;;;;;;;19.15;10.57;;;4.20;99.90;;;;;;5094295;28;20116;-61
2020/12/04 07:09:01;;;;;;;16.48;10.02;;;4.30;99.90;;;;;;5100099;28;20022;-61
2020/12/04 07:11:27;;;;;;;15.63;9.32;;;4.20;99.90;;;;;;5105272;28;20046;-60
2020/12/04 07:13:53;;;;;;;13.15;8.77;;;4.20;99.90;;;;;;5112972;28;20031;-60
2020/12/04 07:16:19;;;;;;;13.18;8.73;;;4.20;99.90;;;;;;5104042;28;20047;-59
2020/12/04 07:18:53;;;;;;;11.98;8.20;;;4.20;99.90;;;;;;5104160;28;20063;-59
2020/12/04 07:21:20;;;;;;;15.43;9.18;;;4.20;99.90;;;;;;5096101;28;20720;-59
2020/12/04 07:23:51;;;;;;;12.57;8.73;;;4.30;99.90;;;;;;5101589;28;20060;-58
2020/12/04 07:26:18;;;;;;;11.88;8.50;;;4.20;99.90;;;;;;5102545;28;20039;-59
2020/12/04 07:28:45;;;;;;;12.25;8.43;;;4.20;99.90;;;;;;5090731;28;20520;-57
2020/12/04 07:31:19;;;;;;;9.77;6.82;;;4.20;99.90;;;;;;5090575;28;20036;-57
2020/12/04 07:34:00;;;;;;;10.57;6.95;;;4.30;99.90;;;;;;5087926;28;20034;-58
2020/12/04 07:36:27;;;;;;;10.93;7.30;;;4.30;99.90;;;;;;5089511;28;20088;-57
2020/12/04 07:39:01;;;;;;;9.15;6.70;;;4.30;99.90;;;;;;5086834;28;20094;-56
2020/12/04 07:41:26;;;;;;;;;;;4.30;99.90;;;;;;5107253;28;20059;-53
2020/12/04 07:44:00;;;;;;;10.30;6.13;;;4.30;99.90;;;;;;5100467;28;20337;-56
2020/12/04 07:46:26;;;;;;;10.95;6.97;;;4.30;99.90;;;;;;5097217;28;20040;-54
2020/12/04 07:49:10;;;;;;;9.63;6.60;;;4.30;99.90;;;;;;5100336;28;20657;-55
2020/12/04 07:51:37;;;;;;;8.02;6.30;;;4.20;99.90;;;;;;5088547;28;20489;-55
2020/12/04 07:54:18;;;;;;;10.15;6.78;;;4.30;99.90;;;;;;5104039;28;20473;-54
2020/12/04 07:56:54;;;;;;;9.35;6.35;;;4.30;99.90;;;;;;5102045;28;20022;-55
2020/12/04 07:59:24;;;;;;;8.75;5.50;;;4.30;99.90;;;;;;5104524;28;20097;-55
2020/12/04 08:01:51;;;;;;;8.65;6.22;;;4.30;99.90;;;;;;5091392;28;20036;-53
2020/12/04 08:04:18;;;;;;;9.10;6.30;;;4.40;99.90;;;;;;5096100;28;20042;-54
2020/12/04 08:06:48;;;;;;;10.07;6.22;;;4.40;99.90;;;;;;5107816;28;20095;-54
2020/12/04 08:09:16;;;;;;;10.30;6.40;;;4.40;99.90;;;;;;5104878;27;20046;-56
2020/12/04 08:11:54;;;;;;;8.80;6.50;;;4.50;99.90;;;;;;5105583;28;20034;-52
2020/12/04 08:14:27;;;;;;;11.85;7.78;;;4.40;99.90;;;;;;5108617;28;20585;-53
2020/12/04 08:16:58;;;;;;;10.80;7.82;;;4.50;99.90;;;;;;5109211;27;20039;-55
2020/12/04 08:19:28;;;;;;;13.65;8.68;;;4.40;99.90;;;;;;5106741;27;20083;-52
2020/12/04 08:22:01;;;;;;;16.63;9.40;;;4.50;99.90;;;;;;5101787;27;20672;-56
2020/12/04 08:24:30;;;;;;;12.75;8.70;;;4.40;99.90;;;;;;5095223;28;20040;-52
2020/12/04 08:27:12;;;;;;;13.60;8.50;;;4.50;99.90;;;;;;5100930;27;20375;-53
2020/12/04 08:29:41;;;;;;;14.52;9.25;;;4.50;99.90;;;;;;5094965;27;20037;-54
2020/12/04 08:32:11;;;;;;;12.88;8.55;;;4.40;99.90;;;;;;5109889;27;21396;-54
2020/12/04 08:34:38;;;;;;;13.70;8.50;;;4.50;99.90;;;;;;5106481;28;20098;-53
2020/12/04 08:37:06;;;;;;;14.07;9.35;;;4.50;99.90;;;;;;5105955;27;20472;-57
2020/12/04 08:39:39;;;;;;;14.02;9.73;;;4.50;99.90;;;;;;5114156;27;20050;-52
2020/12/04 08:42:29;;;;;;;11.23;7.53;;;4.40;99.90;;;;;;5104475;27;20509;-54
2020/12/04 08:45:01;;;;;;;18.88;9.32;;;4.50;99.90;;;;;;5095239;28;20091;-49
2020/12/04 08:47:26;;;;;;;19.40;11.00;;;4.50;99.90;;;;;;5099368;27;20116;-52
2020/12/04 08:49:54;;;;;;;16.33;10.40;;;4.60;99.90;;;;;;5100853;27;20036;-52
2020/12/04 08:52:36;;;;;;;14.52;9.40;;;4.60;99.90;;;;;;5106780;27;20054;-52
2020/12/04 08:55:10;;;;;;;16.27;9.98;;;4.70;99.90;;;;;;5100557;28;20050;-54
2020/12/04 08:57:36;;;;;;;15.88;8.85;;;4.70;99.90;;;;;;5089057;27;20071;-54
2020/12/04 09:00:04;;;;;;;14.63;9.05;;;4.70;99.90;;;;;;5096878;27;20692;-53
2020/12/04 09:02:30;;;;;;;12.90;7.68;;;4.70;99.90;;;;;;5095070;28;20144;-55
2020/12/04 09:04:55;;;;;;;12.52;7.43;;;4.70;99.90;;;;;;5100993;28;20107;-53
2020/12/04 09:07:21;;;;;;;11.65;6.70;;;4.70;99.90;;;;;;5109867;28;20032;-52
2020/12/04 09:09:47;;;;;;;11.07;7.32;;;4.70;99.90;;;;;;5111017;28;20077;-53
2020/12/04 09:12:13;;;;;;;11.52;7.68;;;4.70;99.90;;;;;;5110680;28;20042;-51
2020/12/04 09:14:38;;;;;;;12.70;7.18;;;4.70;99.90;;;;;;5111637;28;20026;-49
2020/12/04 09:17:04;;;;;;;11.57;7.55;;;4.70;99.90;;;;;;5109967;28;20063;-52
2020/12/04 09:19:30;;;;;;;12.27;6.82;;;4.70;99.90;;;;;;5105935;27;20028;-51
2020/12/04 09:21:55;;;;;;;15.60;7.50;;;4.80;99.90;;;;;;5090316;28;20044;-50
2020/12/04 09:24:21;;;;;;;9.10;5.82;;;4.90;99.90;;;;;;5111256;28;20035;-51
2020/12/04 09:26:47;;;;;;;7.65;5.28;;;4.90;99.90;;;;;;5111547;28;20100;-50
2020/12/04 09:29:12;;;;;;;8.35;5.47;;;4.90;99.90;;;;;;5111132;28;20067;-51
2020/12/04 09:31:38;;;;;;;8.90;5.97;;;4.90;99.90;;;;;;5111332;28;20077;-52
2020/12/04 09:34:04;;;;;;;10.70;5.65;;;5.00;99.90;;;;;;5110135;28;20089;-52
2020/12/04 09:36:30;;;;;;;7.32;5.00;;;5.00;99.90;;;;;;5090027;28;20067;-53
2020/12/04 09:38:55;;;;;;;7.22;5.05;;;5.00;99.90;;;;;;5101643;27;20035;-51
2020/12/04 09:41:21;;;;;;;6.80;5.15;;;5.00;99.90;;;;;;5106795;28;20049;-50
2020/12/04 09:43:47;;;;;;;8.70;4.93;;;5.10;99.90;;;;;;5104429;28;20668;-51
2020/12/04 09:46:12;;;;;;;6.38;4.43;;;5.20;99.90;;;;;;5109962;28;20032;-51
2020/12/04 09:48:38;;;;;;;9.60;5.00;;;5.10;99.90;;;;;;5109853;28;20036;-50
2020/12/04 09:51:03;;;;;;;6.70;5.00;;;5.10;99.90;;;;;;5093385;28;20493;-50
2020/12/04 09:53:29;;;;;;;8.63;4.63;;;5.10;99.90;;;;;;5102709;28;20067;-53
2020/12/04 09:55:55;;;;;;;12.25;4.72;;;5.20;99.90;;;;;;5110391;28;20500;-51
2020/12/04 09:58:20;;;;;;;7.03;4.57;;;5.20;99.90;;;;;;5110514;28;20024;-51
2020/12/04 10:00:46;;;;;;;5.70;3.88;;;5.20;99.90;;;;;;5110595;28;20130;-51
2020/12/04 10:03:12;;;;;;;4.80;3.15;;;5.20;99.90;;;;;;5109891;28;20042;-50
2020/12/04 10:05:38;;;;;;;7.20;3.03;;;5.30;99.90;;;;;;5096468;28;20028;-50
2020/12/04 10:08:03;;;;;;;5.80;2.85;;;5.30;99.90;;;;;;5098577;28;20035;-50
2020/12/04 10:10:29;;;;;;;3.13;2.60;;;5.20;99.90;;;;;;5110030;28;20036;-53
2020/12/04 10:12:55;;;;;;;5.55;3.17;;;5.20;99.90;;;;;;5109732;28;20036;-49
2020/12/04 10:15:20;;;;;;;4.95;3.33;;;5.20;99.90;;;;;;5110139;28;20047;-49
2020/12/04 10:17:46;;;;;;;4.55;3.17;;;5.30;99.90;;;;;;5109122;28;20473;-49
2020/12/04 10:20:12;;;;;;;8.38;3.08;;;5.30;99.90;;;;;;5100742;28;20113;-53
2020/12/04 10:22:37;;;;;;;4.43;2.90;;;5.30;99.90;;;;;;5095400;28;20040;-50
2020/12/04 10:25:03;;;;;;;4.28;3.03;;;5.50;99.90;;;;;;5109771;28;20775;-49
2020/12/04 10:27:29;;;;;;;4.05;2.65;;;5.50;99.90;;;;;;5109638;28;20144;-50
2020/12/04 10:29:54;;;;;;;3.55;2.88;;;5.40;99.90;;;;;;5109387;28;20034;-50
2020/12/04 10:32:20;;;;;;;4.22;2.80;;;5.60;99.90;;;;;;5109437;28;20409;-49
2020/12/04 10:34:47;;;;;;;4.30;2.88;;;5.50;99.90;;;;;;5100544;27;20155;-50
2020/12/04 10:37:13;;;;;;;4.53;2.20;;;5.50;99.90;;;;;;5095323;28;20097;-50
2020/12/04 10:39:38;;;;;;;6.47;2.60;;;5.50;99.90;;;;;;5107342;28;20040;-49
2020/12/04 10:42:04;;;;;;;2.08;1.83;;;5.70;99.90;;;;;;5095147;28;20101;-49
2020/12/04 10:44:32;;;;;;;3.30;1.92;;;5.70;99.90;;;;;;5091501;27;20036;-50
2020/12/04 10:46:59;;;;;;;2.88;2.10;;;5.80;99.90;;;;;;5102192;28;20024;-49
2020/12/04 10:49:25;;;;;;;3.85;2.28;;;5.80;99.90;;;;;;5088172;28;20032;-50
2020/12/04 10:51:56;;;;;;;5.07;2.10;;;5.90;99.90;;;;;;5088466;27;20036;-49
2020/12/04 10:54:22;;;;;;;3.92;2.05;;;5.90;99.90;;;;;;5100866;28;20035;-49
2020/12/04 10:56:48;;;;;;;2.78;2.00;;;5.90;99.90;;;;;;5104305;28;20039;-50
2020/12/04 10:59:14;;;;;;;5.35;2.47;;;5.90;99.90;;;;;;5108514;28;20031;-49
2020/12/04 11:01:56;;;;;;;5.72;1.90;;;5.90;99.90;;;;;;5109550;28;20050;-48
2020/12/04 11:07:06;;;;;;;2.83;1.83;;;6.00;99.90;;;;;;5100817;28;20035;-49
2020/12/04 11:09:32;;;;;;;1.90;1.70;;;5.90;99.90;;;;;;5109245;28;20032;-49
2020/12/04 11:11:57;;;;;;;4.53;1.80;;;6.00;99.90;;;;;;5110644;28;20031;-49
2020/12/04 11:14:23;;;;;;;4.07;1.90;;;5.90;99.90;;;;;;5110165;28;20110;-47
2020/12/04 11:16:49;;;;;;;2.83;1.60;;;6.00;99.90;;;;;;5109634;28;20755;-48
2020/12/04 11:19:15;;;;;;;8.32;1.98;;;6.10;99.90;;;;;;5108182;28;20126;-48
2020/12/04 11:21:40;;;;;;;6.18;2.00;;;6.10;99.90;;;;;;5093827;28;20079;-48
2020/12/04 11:24:06;;;;;;;3.80;1.88;;;6.20;99.90;;;;;;5105338;28;20031;-48
2020/12/04 11:26:32;;;;;;;2.80;1.95;;;6.40;99.90;;;;;;5108363;28;20160;-48
2020/12/04 11:28:58;;;;;;;2.20;1.83;;;6.40;99.90;;;;;;5107761;28;20027;-48
2020/12/04 11:31:24;;;;;;;3.50;2.15;;;6.60;99.90;;;;;;5108110;28;20034;-51
2020/12/04 11:33:49;;;;;;;4.55;1.77;;;6.60;99.90;;;;;;5108333;28;20099;-48
2020/12/04 11:36:18;;;;;;;5.45;2.03;;;6.80;99.90;;;;;;5099456;28;20482;-48
2020/12/04 11:38:43;;;;;;;6.03;2.10;;;6.70;99.90;;;;;;5103388;28;20024;-47
2020/12/04 11:41:10;;;;;;;4.35;1.63;;;6.70;99.90;;;;;;5111650;28;20051;-48
2020/12/04 11:43:36;;;;;;;3.33;1.80;;;6.80;99.90;;;;;;5112530;28;20073;-48
2020/12/04 11:46:02;;;;;;;3.17;1.60;;;6.70;99.90;;;;;;5113424;28;20024;-49
2020/12/04 11:48:27;;;;;;;3.45;1.55;;;6.80;99.90;;;;;;5112558;28;20028;-49
2020/12/04 11:50:53;;;;;;;3.83;1.50;;;6.70;99.90;;;;;;5106850;28;20063;-48
2020/12/04 11:53:19;;;;;;;2.75;1.67;;;6.80;99.90;;;;;;5102856;28;20024;-49
2020/12/04 11:55:44;;;;;;;1.77;1.55;;;6.60;99.90;;;;;;5112843;28;20035;-48
2020/12/04 11:58:10;;;;;;;2.72;1.83;;;6.80;99.90;;;;;;5112605;28;20032;-47
2020/12/04 12:00:36;;;;;;;2.75;1.75;;;6.90;99.90;;;;;;5112862;28;20468;-48
2020/12/04 12:03:01;;;;;;;1.92;1.70;;;6.90;99.90;;;;;;5112413;28;20035;-49
2020/12/04 12:05:27;;;;;;;7.22;2.22;;;6.90;99.90;;;;;;5110809;28;20107;-49
2020/12/04 12:07:53;;;;;;;6.70;1.98;;;6.90;99.90;;;;;;5098131;28;20027;-47
2020/12/04 12:10:18;;;;;;;2.13;1.70;;;6.80;99.90;;;;;;5112783;28;20045;-49
2020/12/04 12:12:44;;;;;;;7.35;2.10;;;6.80;99.90;;;;;;5111982;28;20031;-48
2020/12/04 12:15:10;;;;;;;7.22;2.42;;;6.80;99.90;;;;;;5111903;28;20085;-50
2020/12/04 12:17:36;;;;;;;6.53;1.95;;;6.70;99.90;;;;;;5111574;28;20447;-50
2020/12/04 12:20:02;;;;;;;2.80;1.60;;;6.60;99.90;;;;;;5108185;28;20034;-48
2020/12/04 12:22:28;;;;;;;3.95;1.60;;;6.60;99.90;;;;;;5099375;27;20039;-48
2020/12/04 12:24:54;;;;;;;1.52;1.17;;;6.60;99.90;;;;;;5112579;28;20035;-48
2020/12/04 12:27:20;;;;;;;4.72;1.75;;;6.50;99.90;;;;;;5106460;28;20023;-47
2020/12/04 12:29:45;;;;;;;1.95;1.38;;;6.60;99.90;;;;;;5112048;28;20651;-47
2020/12/04 12:32:11;;;;;;;3.28;1.52;;;6.50;99.90;;;;;;5099693;28;20036;-48
2020/12/04 12:37:21;;;;;;;5.00;1.70;;;6.40;99.90;;;;;;5103493;27;20497;-47
2020/12/04 12:39:47;;;;;;;3.22;1.90;;;6.30;99.90;;;;;;5098266;28;20032;-48
2020/12/04 12:42:14;;;;;;;2.80;2.00;;;6.30;99.90;;;;;;5111051;28;20043;-48
2020/12/04 12:44:41;;;;;;;2.70;1.90;;;6.30;99.90;;;;;;5111700;28;20031;-48
2020/12/04 12:47:08;;;;;;;6.18;1.90;;;6.70;99.90;;;;;;5100108;28;20036;-47
2020/12/04 12:49:33;;;;;;;5.15;1.75;;;6.70;99.90;;;;;;5111819;28;20042;-48
2020/12/04 12:51:59;;;;;;;17.77;2.03;;;6.90;99.90;;;;;;5105179;28;20024;-48
2020/12/04 12:54:27;;;;;;;6.07;1.85;;;7.10;99.90;;;;;;5110337;28;20763;-47
2020/12/04 12:56:53;;;;;;;6.70;2.22;;;7.30;99.90;;;;;;5111275;28;20039;-49
2020/12/04 12:59:19;;;;;;;4.95;1.65;;;7.50;99.90;;;;;;5106479;28;20031;-48